Time;durP1;ratioP1;P1;durP2;ratioP2;P2;SDS_P1;SDS_P2;PMS_P1;PMS_P2;Temp;Humidity;BMP_temperature;BMP_pressure;BME280_temperature;BME280_humidity;BME280_pressure;Samples;Min_cycle;Max_cycle;Signal;HPM_P1;HPM_P2
2022/01/20 00:03:38;;;;;;;;;;;18.10;46.30;;;;;;5105331;27;42980;-76
2022/01/20 00:27:31;;;;;;;;;;;18.10;46.20;;;;;;5105060;27;42982;-80
2022/01/20 00:37:38;;;;;;;;;;;18.10;46.30;;;;;;5104408;27;42924;-81
2022/01/20 00:40:04;;;;;;;;;;;18.10;46.40;;;;;;5105159;27;43114;-79
2022/01/20 00:42:30;;;;;;;;;;;18.10;46.30;;;;;;5104936;27;43341;-81
2022/01/20 00:44:55;;;;;;;;;;;18.10;46.40;;;;;;5107519;27;42885;-81
2022/01/20 00:47:21;;;;;;;;;;;18.10;46.40;;;;;;5108276;27;43262;-81
2022/01/20 00:49:47;;;;;;;;;;;18.10;46.50;;;;;;5109006;27;42940;-80
2022/01/20 00:52:13;;;;;;;;;;;18.00;46.50;;;;;;5108725;27;43471;-80
2022/01/20 00:54:38;;;;;;;;;;;18.00;46.50;;;;;;5108959;27;42951;-81
2022/01/20 00:57:04;;;;;;;;;;;18.10;46.60;;;;;;5108405;27;42975;-81
2022/01/20 00:59:30;;;;;;;;;;;18.00;46.60;;;;;;5108227;27;42991;-81
2022/01/20 01:01:57;;;;;;;;;;;18.00;46.60;;;;;;5108142;27;42875;-81
2022/01/20 01:04:25;;;;;;;;;;;18.10;46.60;;;;;;5108824;27;42846;-81
2022/01/20 01:09:17;;;;;;;;;;;18.10;46.80;;;;;;5107682;27;42923;-81
2022/01/20 01:11:45;;;;;;;;;;;18.10;46.90;;;;;;5108288;27;43198;-81
2022/01/20 01:14:10;;;;;;;;;;;18.10;46.80;;;;;;5109051;27;42915;-81
2022/01/20 01:20:00;;;;;;;;;;;18.00;46.80;;;;;;5108190;27;42869;-81
2022/01/20 01:24:35;;;;;;;;;;;18.00;47.00;;;;;;5108201;27;42986;-79
2022/01/20 01:27:01;;;;;;;;;;;18.00;47.20;;;;;;5107888;27;43578;-81
2022/01/20 01:32:13;;;;;;;;;;;18.10;47.30;;;;;;5108117;27;42917;-79
2022/01/20 01:34:41;;;;;;;;;;;17.70;47.10;;;;;;5107947;27;42943;-79
2022/01/20 01:37:24;;;;;;;;;;;18.10;47.30;;;;;;5107330;27;43603;-79
2022/01/20 01:39:50;;;;;;;;;;;18.00;47.40;;;;;;5107557;27;43015;-82
2022/01/20 01:42:21;;;;;;;;;;;18.00;47.40;;;;;;5107269;27;44113;-81
2022/01/20 01:44:46;;;;;;;;;;;18.00;47.50;;;;;;5107302;27;42933;-81
2022/01/20 01:47:12;;;;;;;;;;;18.00;47.60;;;;;;5108211;27;42894;-82
2022/01/20 01:49:37;;;;;;;;;;;18.00;47.50;;;;;;5108161;27;42906;-81
2022/01/20 01:52:03;;;;;;;;;;;18.00;47.70;;;;;;5107714;27;43017;-79
2022/01/20 01:54:28;;;;;;;;;;;18.00;47.70;;;;;;5107876;27;43259;-81
2022/01/20 01:56:54;;;;;;;;;;;18.00;47.80;;;;;;5106339;27;43229;-81
2022/01/20 01:59:20;;;;;;;;;;;18.00;47.80;;;;;;5107324;27;42949;-81
2022/01/20 02:01:45;;;;;;;;;;;18.00;47.80;;;;;;5107363;27;43075;-78
2022/01/20 02:04:20;;;;;;;;;;;18.00;47.90;;;;;;5107323;27;43044;-80
2022/01/20 02:19:56;;;;;;;;;;;18.00;48.40;;;;;;5107287;27;42885;-80
2022/01/20 02:22:22;;;;;;;;;;;18.00;48.50;;;;;;5107534;27;43460;-81
2022/01/20 02:24:48;;;;;;;;;;;17.90;48.40;;;;;;5107739;27;42983;-81
2022/01/20 02:27:13;;;;;;;;;;;18.00;48.40;;;;;;5107700;27;42908;-82
2022/01/20 02:29:40;;;;;;;;;;;18.00;48.30;;;;;;5107024;27;42972;-82
2022/01/20 02:32:05;;;;;;;;;;;17.90;48.40;;;;;;5107016;27;42997;-81
2022/01/20 02:34:31;;;;;;;;;;;17.90;48.40;;;;;;5107440;27;42900;-82
2022/01/20 02:37:00;;;;;;;;;;;18.00;48.50;;;;;;5106783;27;43354;-81
2022/01/20 02:44:56;;;;;;;;;;;17.90;48.50;;;;;;5127992;27;42953;-82
2022/01/20 02:47:29;;;;;;;;;;;18.00;48.60;;;;;;5127655;27;43398;-82
2022/01/20 02:49:55;;;;;;;;;;;17.90;48.60;;;;;;5127496;27;42873;-81
2022/01/20 02:52:23;;;;;;;;;;;18.00;48.80;;;;;;5127723;27;42947;-82
2022/01/20 02:54:50;;;;;;;;;;;18.00;48.90;;;;;;5127514;27;42892;-79
2022/01/20 02:57:16;;;;;;;;;;;17.90;48.80;;;;;;5127301;27;42943;-80
2022/01/20 02:59:42;;;;;;;;;;;17.90;48.80;;;;;;5127572;27;42929;-81
2022/01/20 03:02:09;;;;;;;;;;;18.00;49.00;;;;;;5127180;27;42924;-81
2022/01/20 03:04:34;;;;;;;;;;;17.90;49.00;;;;;;5082954;27;43045;-81
2022/01/20 03:07:00;;;;;;;;;;;18.00;49.00;;;;;;5085516;27;43004;-82
2022/01/20 03:09:25;;;;;;;;;;;17.90;49.10;;;;;;5085993;27;43172;-82
2022/01/20 03:11:52;;;;;;;;;;;17.90;49.30;;;;;;5100565;27;42931;-81
2022/01/20 03:14:18;;;;;;;;;;;17.90;49.40;;;;;;5126850;27;43042;-82
2022/01/20 03:16:45;;;;;;;;;;;17.90;49.50;;;;;;5127603;27;42943;-81
2022/01/20 03:19:11;;;;;;;;;;;17.90;49.50;;;;;;5127405;27;43129;-81
2022/01/20 03:21:37;;;;;;;;;;;17.90;49.60;;;;;;5126857;27;43793;-82
2022/01/20 03:24:03;;;;;;;;;;;17.90;49.80;;;;;;5127234;27;42931;-82
2022/01/20 03:26:29;;;;;;;;;;;17.90;49.70;;;;;;5127098;27;43383;-80
2022/01/20 03:28:55;;;;;;;;;;;17.90;49.80;;;;;;5127306;27;42920;-82
2022/01/20 03:31:21;;;;;;;;;;;17.90;49.80;;;;;;5127053;27;44130;-77
2022/01/20 03:33:46;;;;;;;;;;;17.90;49.80;;;;;;5127007;27;43039;-82
2022/01/20 03:36:11;;;;;;;;;;;17.90;49.80;;;;;;5126522;27;43984;-80
2022/01/20 03:38:37;;;;;;;;;;;17.90;50.10;;;;;;5126816;27;42950;-82
2022/01/20 03:41:03;;;;;;;;;;;17.90;50.10;;;;;;5126818;27;43382;-79
2022/01/20 03:43:28;;;;;;;;;;;17.90;50.10;;;;;;5127077;27;43086;-81
2022/01/20 03:45:56;;;;;;;;;;;17.90;50.10;;;;;;5126761;27;43729;-80
2022/01/20 03:48:24;;;;;;;;;;;17.90;50.10;;;;;;5127026;27;42851;-78
2022/01/20 03:51:02;;;;;;;;;;;17.90;50.10;;;;;;5126665;27;43566;-81
2022/01/20 03:53:32;;;;;;;;;;;17.90;50.20;;;;;;5125181;27;42896;-80
2022/01/20 03:55:58;;;;;;;;;;;17.90;50.20;;;;;;5126512;27;44482;-81
2022/01/20 03:58:24;;;;;;;;;;;17.90;50.20;;;;;;5126809;27;42923;-81
2022/01/20 04:00:49;;;;;;;;;;;17.90;50.40;;;;;;5126359;27;44022;-80
2022/01/20 04:03:18;;;;;;;;;;;17.90;50.30;;;;;;5125776;27;43102;-80
2022/01/20 04:05:56;;;;;;;;;;;17.90;50.30;;;;;;5126063;27;43376;-80
2022/01/20 04:08:22;;;;;;;;;;;17.90;50.40;;;;;;5126125;27;42986;-81
2022/01/20 04:10:52;;;;;;;;;;;17.90;50.30;;;;;;5126312;27;43901;-73
2022/01/20 04:13:19;;;;;;;;;;;17.90;50.20;;;;;;5124407;27;43011;-74
2022/01/20 04:15:45;;;;;;;;;;;17.90;50.20;;;;;;5139543;27;43439;-76
2022/01/20 04:18:19;;;;;;;;;;;17.80;50.20;;;;;;5104732;27;42892;-78
2022/01/20 04:20:45;;;;;;;;;;;17.90;50.30;;;;;;5105054;27;42857;-79
2022/01/20 04:23:10;;;;;;;;;;;17.90;50.20;;;;;;5105427;27;42936;-80
2022/01/20 04:25:36;;;;;;;;;;;17.90;50.20;;;;;;5105281;27;43301;-80
2022/01/20 04:28:02;;;;;;;;;;;17.80;50.10;;;;;;5105559;27;42853;-80
2022/01/20 04:30:29;;;;;;;;;;;17.90;50.20;;;;;;5104739;27;42941;-79
2022/01/20 04:32:55;;;;;;;;;;;17.90;50.20;;;;;;5104318;27;42974;-79
2022/01/20 04:35:21;;;;;;;;;;;17.80;50.20;;;;;;5104485;27;42919;-81
2022/01/20 04:37:51;;;;;;;;;;;17.80;50.20;;;;;;5105055;27;42886;-79
2022/01/20 04:40:18;;;;;;;;;;;17.80;50.20;;;;;;5104414;27;43273;-81
2022/01/20 04:42:46;;;;;;;;;;;17.80;50.20;;;;;;5103992;27;42932;-82
2022/01/20 04:45:16;;;;;;;;;;;17.80;50.30;;;;;;5105864;27;43613;-81
2022/01/20 04:58:46;;;;;;;;;;;17.80;50.30;;;;;;5084054;28;43048;-81
2022/01/20 05:01:12;;;;;;;;;;;17.80;50.30;;;;;;5083636;27;43335;-81
2022/01/20 05:03:37;;;;;;;;;;;17.80;50.30;;;;;;5083559;28;43149;-81
2022/01/20 05:06:03;;;;;;;;;;;17.80;50.30;;;;;;5107632;27;44024;-78
2022/01/20 05:08:30;;;;;;;;;;;17.80;50.30;;;;;;5104799;27;42821;-81
2022/01/20 05:10:58;;;;;;;;;;;17.80;50.40;;;;;;5103836;27;43786;-82
2022/01/20 05:13:26;;;;;;;;;;;17.80;50.40;;;;;;5110287;27;42959;-81
2022/01/20 05:15:52;;;;;;;;;;;17.80;50.30;;;;;;5124941;27;43158;-81
2022/01/20 05:18:18;;;;;;;;;;;17.80;50.30;;;;;;5125226;27;42951;-81
2022/01/20 05:20:43;;;;;;;;;;;17.80;50.40;;;;;;5125028;27;43409;-81
2022/01/20 05:23:09;;;;;;;;;;;17.80;51.00;;;;;;5125256;27;42957;-80
2022/01/20 05:25:34;;;;;;;;;;;17.80;50.50;;;;;;5110218;27;42961;-81
2022/01/20 05:28:00;;;;;;;;;;;17.80;50.50;;;;;;5105093;27;42902;-81
2022/01/20 05:30:25;;;;;;;;;;;17.80;50.50;;;;;;5104107;27;43012;-82
2022/01/20 05:32:51;;;;;;;;;;;17.80;50.60;;;;;;5108031;27;42940;-81
2022/01/20 05:35:16;;;;;;;;;;;17.80;50.70;;;;;;5107893;27;44089;-80
2022/01/20 05:37:43;;;;;;;;;;;17.80;50.70;;;;;;5107117;27;42830;-81
2022/01/20 05:40:09;;;;;;;;;;;17.80;50.70;;;;;;5111261;27;43349;-81
2022/01/20 05:42:36;;;;;;;;;;;17.80;50.60;;;;;;5117393;27;42876;-81
2022/01/20 05:45:03;;;;;;;;;;;17.80;51.20;;;;;;5128032;27;43517;-81
2022/01/20 05:47:30;;;;;;;;;;;17.80;50.60;;;;;;5114111;27;43733;-79
2022/01/20 05:50:37;;;;;;;;;;;17.80;50.60;;;;;;5107856;27;43572;-81
2022/01/20 05:53:04;;;;;;;;;;;17.80;50.70;;;;;;5107314;27;42909;-80
2022/01/20 05:55:31;;;;;;;;;;;17.80;50.80;;;;;;5108789;27;42934;-79
2022/01/20 05:57:56;;;;;;;;;;;17.80;50.90;;;;;;5119204;27;42928;-79
2022/01/20 06:00:23;;;;;;;;;;;17.80;50.80;;;;;;5117673;27;43939;-80
2022/01/20 06:05:33;;;;;;;;;;;17.80;50.80;;;;;;5127455;27;42991;-83
2022/01/20 06:07:59;;;;;;;;;;;17.70;50.80;;;;;;5128237;27;42812;-81
2022/01/20 06:10:24;;;;;;;;;;;17.70;50.90;;;;;;5127661;27;42887;-81
2022/01/20 06:12:50;;;;;;;;;;;17.80;50.90;;;;;;5127858;27;42971;-80
2022/01/20 06:15:15;;;;;;;;;;;17.70;50.90;;;;;;5122233;27;42921;-79
2022/01/20 06:17:41;;;;;;;;;;;17.70;50.80;;;;;;5127084;27;42823;-80
2022/01/20 06:20:07;;;;;;;;;;;17.80;50.80;;;;;;5128194;27;42769;-80
2022/01/20 06:22:33;;;;;;;;;;;17.80;50.80;;;;;;5128368;27;42848;-80
2022/01/20 06:24:59;;;;;;;;;;;17.80;50.80;;;;;;5127977;27;43018;-81
2022/01/20 06:27:24;;;;;;;;;;;17.80;50.90;;;;;;5126679;27;42917;-80
2022/01/20 06:29:50;;;;;;;;;;;17.70;50.80;;;;;;5126989;27;43895;-81
2022/01/20 06:32:15;;;;;;;;;;;17.70;50.80;;;;;;5107714;27;42987;-80
2022/01/20 06:34:41;;;;;;;;;;;17.70;50.90;;;;;;5108562;27;43742;-78
2022/01/20 06:37:07;;;;;;;;;;;17.70;50.90;;;;;;5107431;27;42914;-78
2022/01/20 06:39:32;;;;;;;;;;;17.70;50.80;;;;;;5119578;27;43601;-76
2022/01/20 06:41:58;;;;;;;;;;;17.70;50.90;;;;;;5120436;27;42806;-78
2022/01/20 06:44:23;;;;;;;;;;;17.70;50.90;;;;;;5119102;27;43019;-78
2022/01/20 06:46:49;;;;;;;;;;;17.70;50.90;;;;;;5119405;27;42889;-76
2022/01/20 06:49:15;;;;;;;;;;;17.70;50.90;;;;;;5106864;27;42977;-75
2022/01/20 06:51:41;;;;;;;;;;;17.70;51.00;;;;;;5118351;27;43131;-77
2022/01/20 06:54:06;;;;;;;;;;;17.70;50.90;;;;;;5114093;27;43585;-79
2022/01/20 06:56:32;;;;;;;;;;;17.70;50.90;;;;;;5112919;27;43503;-76
2022/01/20 06:58:58;;;;;;;;;;;17.70;50.90;;;;;;5113819;27;42963;-76
2022/01/20 07:01:23;;;;;;;;;;;17.70;51.00;;;;;;5115784;27;43215;-75
2022/01/20 07:03:49;;;;;;;;;;;17.70;51.00;;;;;;5126845;27;42943;-79
2022/01/20 07:06:14;;;;;;;;;;;17.70;51.00;;;;;;5126476;27;43041;-79
2022/01/20 07:08:40;;;;;;;;;;;17.70;51.00;;;;;;5126834;27;43506;-76
2022/01/20 07:11:05;;;;;;;;;;;17.70;50.90;;;;;;5109649;27;43281;-79
2022/01/20 07:13:31;;;;;;;;;;;17.70;51.00;;;;;;5112724;27;43122;-79
2022/01/20 07:15:57;;;;;;;;;;;17.70;50.90;;;;;;5126339;27;43047;-79
2022/01/20 07:18:22;;;;;;;;;;;17.70;50.90;;;;;;5126436;27;43237;-78
2022/01/20 07:20:48;;;;;;;;;;;17.70;51.00;;;;;;5122626;27;43102;-78
2022/01/20 07:23:13;;;;;;;;;;;17.70;51.00;;;;;;5120885;27;42889;-77
2022/01/20 07:25:39;;;;;;;;;;;17.70;50.90;;;;;;5126349;27;43002;-78
2022/01/20 07:28:04;;;;;;;;;;;17.70;51.00;;;;;;5119926;27;43588;-78
2022/01/20 07:30:30;;;;;;;;;;;17.70;51.00;;;;;;5118982;27;43260;-79
2022/01/20 07:32:56;;;;;;;;;;;17.70;51.10;;;;;;5125676;27;43006;-78
2022/01/20 07:35:21;;;;;;;;;;;17.70;51.10;;;;;;5124438;27;43111;-75
2022/01/20 07:37:48;;;;;;;;;;;17.70;51.10;;;;;;5119698;27;43541;-77
2022/01/20 07:40:13;;;;;;;;;;;17.70;51.00;;;;;;5120306;27;43026;-78
2022/01/20 07:42:39;;;;;;;;;;;17.70;51.10;;;;;;5125707;27;43339;-77
2022/01/20 07:45:05;;;;;;;;;;;17.60;51.10;;;;;;5125559;27;42971;-75
2022/01/20 07:47:30;;;;;;;;;;;17.70;51.00;;;;;;5125912;27;43788;-78
2022/01/20 07:49:55;;;;;;;;;;;17.70;51.00;;;;;;5122720;27;43255;-77
2022/01/20 07:52:21;;;;;;;;;;;17.70;51.10;;;;;;5125507;27;43053;-78
2022/01/20 07:54:46;;;;;;;;;;;17.70;51.10;;;;;;5119073;27;42940;-77
2022/01/20 07:57:12;;;;;;;;;;;17.70;51.20;;;;;;5125636;27;43185;-76
2022/01/20 07:59:38;;;;;;;;;;;17.70;51.20;;;;;;5121890;27;42978;-77
2022/01/20 08:02:03;;;;;;;;;;;17.70;51.00;;;;;;5126083;27;43453;-76
2022/01/20 08:04:29;;;;;;;;;;;17.10;38.50;;;;;;5126040;27;43333;-76
2022/01/20 08:06:54;;;;;;;;;;;16.80;39.20;;;;;;5125526;27;43763;-77
2022/01/20 08:09:22;;;;;;;;;;;16.90;39.90;;;;;;5123003;27;42923;-77
2022/01/20 08:11:50;;;;;;;;;;;17.00;41.00;;;;;;5124169;27;63359;-73
2022/01/20 08:14:15;;;;;;;;;;;17.00;41.70;;;;;;5124086;27;43065;-80
2022/01/20 08:16:41;;;;;;;;;;;17.10;42.80;;;;;;5119658;27;43028;-79
2022/01/20 08:19:06;;;;;;;;;;;17.20;42.60;;;;;;5124566;27;42984;-76
2022/01/20 08:21:32;;;;;;;;;;;17.10;43.30;;;;;;5097330;27;43407;-79
2022/01/20 08:23:58;;;;;;;;;;;17.30;44.90;;;;;;5083971;27;43037;-79
2022/01/20 08:26:23;;;;;;;;;;;17.40;45.20;;;;;;5084374;27;42881;-78
2022/01/20 08:28:49;;;;;;;;;;;17.40;44.80;;;;;;5084534;27;42973;-78
2022/01/20 08:31:14;;;;;;;;;;;17.50;44.90;;;;;;5084834;28;43611;-79
2022/01/20 08:33:40;;;;;;;;;;;17.50;44.70;;;;;;5084460;27;42827;-79
2022/01/20 08:36:06;;;;;;;;;;;17.60;45.10;;;;;;5084665;27;42963;-80
2022/01/20 08:38:31;;;;;;;;;;;17.60;45.10;;;;;;5086433;27;42874;-80
2022/01/20 08:40:59;;;;;;;;;;;17.60;45.60;;;;;;5103632;27;42845;-79
2022/01/20 08:43:24;;;;;;;;;;;17.60;46.20;;;;;;5104127;27;42923;-77
2022/01/20 08:45:50;;;;;;;;;;;17.60;45.80;;;;;;5110969;27;43463;-78
2022/01/20 08:48:16;;;;;;;;;;;17.60;45.90;;;;;;5120569;27;43026;-78
2022/01/20 08:50:42;;;;;;;;;;;17.70;46.00;;;;;;5104428;27;42990;-78
2022/01/20 08:53:08;;;;;;;;;;;17.70;46.10;;;;;;5104769;27;42845;-77
2022/01/20 08:55:35;;;;;;;;;;;17.70;46.10;;;;;;5105111;27;43655;-79
2022/01/20 08:58:01;;;;;;;;;;;17.70;46.20;;;;;;5104882;27;42889;-78
2022/01/20 09:00:29;;;;;;;;;;;17.70;46.20;;;;;;5124502;27;42949;-78
2022/01/20 09:02:55;;;;;;;;;;;17.70;46.30;;;;;;5124581;27;43069;-77
2022/01/20 09:05:20;;;;;;;;;;;17.70;46.30;;;;;;5125994;27;43687;-77
2022/01/20 09:07:46;;;;;;;;;;;17.70;46.30;;;;;;5128791;27;43226;-78
2022/01/20 09:10:19;;;;;;;;;;;17.80;46.40;;;;;;5122894;27;43383;-78
2022/01/20 09:15:30;;;;;;;;;;;17.70;46.40;;;;;;5128052;27;43042;-79
2022/01/20 09:17:57;;;;;;;;;;;17.80;46.40;;;;;;5127336;27;43059;-79
2022/01/20 09:20:23;;;;;;;;;;;17.80;46.30;;;;;;5124989;27;44623;-79
2022/01/20 09:22:50;;;;;;;;;;;17.80;46.40;;;;;;5127987;27;43102;-80
2022/01/20 09:25:16;;;;;;;;;;;17.70;46.40;;;;;;5126888;27;43040;-78
2022/01/20 09:27:42;;;;;;;;;;;17.80;46.40;;;;;;5128504;27;42852;-78
2022/01/20 09:30:08;;;;;;;;;;;17.80;46.60;;;;;;5108415;27;43895;-79
2022/01/20 09:32:37;;;;;;;;;;;17.80;46.60;;;;;;5107532;27;42950;-80
2022/01/20 09:35:03;;;;;;;;;;;17.80;46.50;;;;;;5107505;27;43594;-79
2022/01/20 09:37:29;;;;;;;;;;;17.80;46.40;;;;;;5113112;27;43673;-76
2022/01/20 09:39:55;;;;;;;;;;;17.80;46.60;;;;;;5119333;27;42994;-79
2022/01/20 09:42:21;;;;;;;;;;;17.80;46.60;;;;;;5122492;27;43140;-79
2022/01/20 09:44:47;;;;;;;;;;;17.80;46.60;;;;;;5127956;27;43625;-80
2022/01/20 09:47:15;;;;;;;;;;;17.80;46.60;;;;;;5126881;27;43037;-79
2022/01/20 09:49:41;;;;;;;;;;;17.80;46.60;;;;;;5125450;27;44125;-74
2022/01/20 09:52:07;;;;;;;;;;;17.80;46.60;;;;;;5127982;27;42958;-78
2022/01/20 09:54:32;;;;;;;;;;;17.80;46.60;;;;;;5128078;27;43790;-79
2022/01/20 09:56:58;;;;;;;;;;;17.80;46.70;;;;;;5127479;27;42938;-77
2022/01/20 09:59:24;;;;;;;;;;;17.80;46.60;;;;;;5127353;27;42853;-78
2022/01/20 10:01:52;;;;;;;;;;;17.80;46.60;;;;;;5118843;27;43109;-76
2022/01/20 10:04:21;;;;;;;;;;;17.80;46.60;;;;;;5114874;27;43683;-75
2022/01/20 10:07:06;;;;;;;;;;;17.80;46.00;;;;;;5107536;27;42951;-76
2022/01/20 10:09:38;;;;;;;;;;;17.60;42.30;;;;;;5103645;27;44546;-76
2022/01/20 10:12:05;;;;;;;;;;;16.40;42.30;;;;;;5117587;27;43056;-75
2022/01/20 10:14:38;;;;;;;;;;;16.50;42.10;;;;;;5126203;27;43868;-77
2022/01/20 10:17:13;;;;;;;;;;;16.40;41.90;;;;;;5126081;27;43087;-77
2022/01/20 10:19:39;;;;;;;;;;;16.10;43.00;;;;;;5122454;27;42936;-75
2022/01/20 10:22:12;;;;;;;;;;;16.00;42.90;;;;;;5118069;27;43134;-75
2022/01/20 10:24:38;;;;;;;;;;;16.10;42.80;;;;;;5126742;27;42890;-76
2022/01/20 10:27:10;;;;;;;;;;;16.50;43.00;;;;;;5127279;27;42838;-77
2022/01/20 10:29:36;;;;;;;;;;;16.30;43.20;;;;;;5105310;27;44715;-79
2022/01/20 10:32:02;;;;;;;;;;;16.40;43.10;;;;;;5099695;27;42988;-79
2022/01/20 10:34:35;;;;;;;;;;;16.70;41.90;;;;;;5117355;27;43487;-79
2022/01/20 10:37:14;;;;;;;;;;;16.60;41.90;;;;;;5112499;27;42927;-79
2022/01/20 10:39:45;;;;;;;;;;;16.70;42.20;;;;;;5115659;27;42967;-80
2022/01/20 10:42:12;;;;;;;;;;;16.70;42.20;;;;;;5105461;27;42963;-76
2022/01/20 10:44:41;;;;;;;;;;;16.80;42.40;;;;;;5115849;27;43679;-77
2022/01/20 10:47:10;;;;;;;;;;;17.00;42.50;;;;;;5126902;27;43806;-79
2022/01/20 10:49:36;;;;;;;;;;;17.10;42.70;;;;;;5119456;27;42993;-79
2022/01/20 10:52:06;;;;;;;;;;;17.00;43.40;;;;;;5119279;27;42931;-77
2022/01/20 10:54:37;;;;;;;;;;;17.00;43.30;;;;;;5126324;27;45330;-78
2022/01/20 10:57:03;;;;;;;;;;;17.20;43.50;;;;;;5126197;27;43049;-80
2022/01/20 10:59:29;;;;;;;;;;;17.30;43.40;;;;;;5126529;27;43189;-80
2022/01/20 11:01:57;;;;;;;;;;;17.30;43.60;;;;;;5117226;27;43065;-74
2022/01/20 11:04:23;;;;;;;;;;;17.40;43.60;;;;;;5126107;27;42998;-76
2022/01/20 11:06:53;;;;;;;;;;;17.40;43.60;;;;;;5126186;27;43081;-79
2022/01/20 11:09:20;;;;;;;;;;;17.40;43.80;;;;;;5125652;27;43434;-76
2022/01/20 11:11:48;;;;;;;;;;;17.40;43.80;;;;;;5122919;27;43069;-79
2022/01/20 11:14:14;;;;;;;;;;;17.50;43.90;;;;;;5127058;27;43409;-76
2022/01/20 11:16:40;;;;;;;;;;;17.50;44.00;;;;;;5125857;27;43008;-80
2022/01/20 11:19:18;;;;;;;;;;;17.50;44.00;;;;;;5122775;27;43292;-78
2022/01/20 11:21:45;;;;;;;;;;;17.50;44.10;;;;;;5126115;27;43003;-80
2022/01/20 11:24:24;;;;;;;;;;;17.50;44.30;;;;;;5126104;27;43893;-78
2022/01/20 11:26:51;;;;;;;;;;;17.50;44.30;;;;;;5115834;27;44377;-84
2022/01/20 11:29:16;;;;;;;;;;;17.60;44.40;;;;;;5124473;27;43767;-86
2022/01/20 11:31:42;;;;;;;;;;;17.60;44.50;;;;;;5125215;27;42962;-84
2022/01/20 11:34:15;;;;;;;;;;;17.60;44.70;;;;;;5122822;27;43092;-85
2022/01/20 11:36:41;;;;;;;;;;;17.60;45.00;;;;;;5126301;27;42779;-85
2022/01/20 11:39:06;;;;;;;;;;;17.60;45.20;;;;;;5125662;27;43786;-84
2022/01/20 11:41:40;;;;;;;;;;;17.60;45.40;;;;;;5125833;27;42973;-85
2022/01/20 11:44:10;;;;;;;;;;;17.60;46.00;;;;;;5124689;27;43411;-74
2022/01/20 11:46:38;;;;;;;;;;;17.60;46.80;;;;;;5121575;27;42943;-77
2022/01/20 11:49:09;;;;;;;;;;;17.70;47.20;;;;;;5125210;27;43426;-77
2022/01/20 11:51:43;;;;;;;;;;;17.70;47.50;;;;;;5093512;27;42949;-75
2022/01/20 11:54:09;;;;;;;;;;;17.70;47.40;;;;;;5084993;28;43208;-76
2022/01/20 11:56:40;;;;;;;;;;;17.70;46.60;;;;;;5085264;27;43048;-75
2022/01/20 11:59:06;;;;;;;;;;;17.70;46.90;;;;;;5086694;27;43035;-77
2022/01/20 12:01:44;;;;;;;;;;;17.70;47.30;;;;;;5087782;27;42988;-77
2022/01/20 12:04:10;;;;;;;;;;;17.70;47.30;;;;;;5085538;28;43582;-77
2022/01/20 12:06:42;;;;;;;;;;;17.70;47.30;;;;;;5117862;27;43094;-77
2022/01/20 12:09:08;;;;;;;;;;;17.70;47.40;;;;;;5126003;27;43407;-76
2022/01/20 12:11:35;;;;;;;;;;;17.70;47.40;;;;;;5109849;27;42898;-75
2022/01/20 12:14:01;;;;;;;;;;;17.70;47.50;;;;;;5105331;27;42987;-76
2022/01/20 12:16:26;;;;;;;;;;;17.70;47.40;;;;;;5105900;27;42923;-76
2022/01/20 12:18:53;;;;;;;;;;;17.70;47.20;;;;;;5105789;27;43516;-78
2022/01/20 12:21:19;;;;;;;;;;;17.80;47.20;;;;;;5094900;27;42845;-75
2022/01/20 12:23:46;;;;;;;;;;;17.80;47.30;;;;;;5085020;28;42938;-75
2022/01/20 12:26:12;;;;;;;;;;;17.80;47.70;;;;;;5095776;27;42990;-75
2022/01/20 12:28:38;;;;;;;;;;;17.70;47.50;;;;;;5121974;27;44037;-75
2022/01/20 12:31:05;;;;;;;;;;;17.80;47.20;;;;;;5122774;27;43092;-76
2022/01/20 12:33:32;;;;;;;;;;;17.80;47.50;;;;;;5106842;27;43811;-75
2022/01/20 12:36:05;;;;;;;;;;;17.80;47.50;;;;;;5122626;27;44323;-76
2022/01/20 12:38:30;;;;;;;;;;;17.80;47.30;;;;;;5124462;27;43339;-77
2022/01/20 12:41:15;;;;;;;;;;;17.80;47.30;;;;;;5122345;27;42812;-78
2022/01/20 12:43:48;;;;;;;;;;;17.80;47.40;;;;;;5119869;27;43058;-76
2022/01/20 12:46:15;;;;;;;;;;;17.80;47.40;;;;;;5122285;27;43026;-76
2022/01/20 12:48:58;;;;;;;;;;;17.80;47.10;;;;;;5129109;27;43003;-78
2022/01/20 12:51:39;;;;;;;;;;;17.80;47.20;;;;;;5123837;27;42996;-76
2022/01/20 12:54:06;;;;;;;;;;;17.80;47.40;;;;;;5123511;27;43884;-76
2022/01/20 12:56:34;;;;;;;;;;;17.80;47.50;;;;;;5122294;27;43053;-77
2022/01/20 12:59:00;;;;;;;;;;;17.80;47.10;;;;;;5128821;27;43079;-77
2022/01/20 13:01:36;;;;;;;;;;;17.80;47.90;;;;;;5122681;27;43208;-76
2022/01/20 13:04:01;;;;;;;;;;;17.80;48.00;;;;;;5105584;27;42960;-76
2022/01/20 13:06:28;;;;;;;;;;;17.80;48.00;;;;;;5121896;27;43017;-75
2022/01/20 13:08:58;;;;;;;;;;;17.80;47.80;;;;;;5115003;27;44026;-77
2022/01/20 13:11:28;;;;;;;;;;;17.90;47.90;;;;;;5121013;27;43004;-81
2022/01/20 13:13:54;;;;;;;;;;;17.90;47.50;;;;;;5122542;27;43042;-77
2022/01/20 13:16:20;;;;;;;;;;;17.80;47.30;;;;;;5122625;27;42900;-78
2022/01/20 13:18:52;;;;;;;;;;;17.80;47.30;;;;;;5127266;27;43638;-79
2022/01/20 13:21:18;;;;;;;;;;;17.90;47.40;;;;;;5105412;27;42951;-76
2022/01/20 13:23:56;;;;;;;;;;;17.80;47.40;;;;;;5114158;27;42944;-79
2022/01/20 13:26:22;;;;;;;;;;;17.90;47.60;;;;;;5115640;27;43010;-79
2022/01/20 13:29:01;;;;;;;;;;;17.90;47.90;;;;;;5118343;27;43722;-80
2022/01/20 13:31:27;;;;;;;;;;;17.60;45.30;;;;;;5107854;27;43160;-79
2022/01/20 13:33:53;;;;;;;;;;;17.30;42.80;;;;;;5087246;27;43623;-80
2022/01/20 13:36:21;;;;;;;;;;;17.10;42.10;;;;;;5122152;27;42936;-80
2022/01/20 13:38:48;;;;;;;;;;;16.90;42.10;;;;;;5122717;27;42959;-82
2022/01/20 13:41:22;;;;;;;;;;;16.80;42.90;;;;;;5128740;27;42880;-83
2022/01/20 13:46:42;;;;;;;;;;;17.30;41.90;;;;;;5122190;27;42900;-82
2022/01/20 13:49:08;;;;;;;;;;;17.40;41.70;;;;;;5121909;27;43006;-81
2022/01/20 13:51:34;;;;;;;;;;;17.40;41.70;;;;;;5125688;27;42972;-83
2022/01/20 13:53:59;;;;;;;;;;;17.40;41.90;;;;;;5117850;27;42928;-83
2022/01/20 13:56:25;;;;;;;;;;;17.40;41.70;;;;;;5128321;27;42825;-83
2022/01/20 13:59:00;;;;;;;;;;;17.40;41.70;;;;;;5121662;27;43022;-83
2022/01/20 14:01:26;;;;;;;;;;;17.50;41.50;;;;;;5124345;27;43547;-82
2022/01/20 14:03:51;;;;;;;;;;;17.40;41.60;;;;;;5127210;27;42958;-83
2022/01/20 14:06:17;;;;;;;;;;;17.40;41.40;;;;;;5117191;27;43004;-82
2022/01/20 14:08:42;;;;;;;;;;;17.40;41.50;;;;;;5125663;27;43007;-83
2022/01/20 14:11:08;;;;;;;;;;;17.40;41.60;;;;;;5121174;27;43039;-83
2022/01/20 14:13:34;;;;;;;;;;;17.40;41.50;;;;;;5124740;27;43257;-83
2022/01/20 14:16:01;;;;;;;;;;;17.40;41.60;;;;;;5127028;27;42991;-80
2022/01/20 14:18:31;;;;;;;;;;;17.40;41.90;;;;;;5127947;27;42875;-75
2022/01/20 14:20:57;;;;;;;;;;;17.40;41.50;;;;;;5128180;27;42928;-84
2022/01/20 14:23:22;;;;;;;;;;;17.40;42.90;;;;;;5127524;27;42974;-83
2022/01/20 14:25:48;;;;;;;;;;;17.50;42.70;;;;;;5127548;27;42998;-83
2022/01/20 14:28:14;;;;;;;;;;;17.50;42.70;;;;;;5127284;27;43482;-82
2022/01/20 14:30:40;;;;;;;;;;;17.50;42.90;;;;;;5125603;27;43022;-83
2022/01/20 14:33:08;;;;;;;;;;;17.60;43.10;;;;;;5111781;27;43980;-81
2022/01/20 14:35:33;;;;;;;;;;;17.50;43.40;;;;;;5118893;27;42975;-80
2022/01/20 14:38:00;;;;;;;;;;;17.60;44.10;;;;;;5121246;27;42996;-79
2022/01/20 14:40:25;;;;;;;;;;;17.70;44.00;;;;;;5115546;27;42902;-80
2022/01/20 14:42:51;;;;;;;;;;;17.70;44.60;;;;;;5126673;27;42985;-79
2022/01/20 14:45:18;;;;;;;;;;;17.70;44.20;;;;;;5121573;27;42952;-78
2022/01/20 14:47:45;;;;;;;;;;;17.70;44.20;;;;;;5126990;27;43511;-79
2022/01/20 14:50:11;;;;;;;;;;;17.70;44.40;;;;;;5127767;27;43043;-80
2022/01/20 14:52:36;;;;;;;;;;;17.80;44.40;;;;;;5127178;27;43413;-79
2022/01/20 14:55:05;;;;;;;;;;;17.80;44.50;;;;;;5127136;27;42962;-78
2022/01/20 14:57:31;;;;;;;;;;;17.80;44.60;;;;;;5126662;27;42845;-79
2022/01/20 14:59:56;;;;;;;;;;;17.80;44.50;;;;;;5127955;27;42956;-80
2022/01/20 15:02:22;;;;;;;;;;;17.80;44.60;;;;;;5127199;27;42994;-79
2022/01/20 15:04:48;;;;;;;;;;;17.80;44.70;;;;;;5127834;27;43006;-79
2022/01/20 15:07:14;;;;;;;;;;;17.80;44.80;;;;;;5126077;27;42930;-78
2022/01/20 15:09:40;;;;;;;;;;;17.80;44.70;;;;;;5110684;27;42865;-78
2022/01/20 15:12:08;;;;;;;;;;;17.80;44.80;;;;;;5125795;27;43424;-76
2022/01/20 15:14:33;;;;;;;;;;;17.80;44.80;;;;;;5125861;27;43031;-77
2022/01/20 15:16:59;;;;;;;;;;;17.80;44.90;;;;;;5126061;27;43699;-78
2022/01/20 15:19:24;;;;;;;;;;;17.80;44.80;;;;;;5126427;27;42929;-78
2022/01/20 15:21:50;;;;;;;;;;;17.80;44.80;;;;;;5123018;27;42916;-79
2022/01/20 15:24:15;;;;;;;;;;;17.80;44.90;;;;;;5118860;27;42909;-78
2022/01/20 15:26:42;;;;;;;;;;;17.90;45.00;;;;;;5126503;27;43468;-79
2022/01/20 15:29:07;;;;;;;;;;;17.90;45.00;;;;;;5125301;27;43017;-77
2022/01/20 15:31:36;;;;;;;;;;;17.80;45.00;;;;;;5125734;27;43215;-76
2022/01/20 15:34:06;;;;;;;;;;;17.90;45.10;;;;;;5125958;27;43095;-75
2022/01/20 15:36:32;;;;;;;;;;;17.60;45.00;;;;;;5125816;27;43476;-76